createdAt,value
2017-09-11T00:00:32.147Z,79.83
2017-09-11T00:01:12.734Z,79.83
2017-09-11T00:01:53.331Z,80.11
2017-09-11T00:02:33.888Z,79.93
2017-09-11T00:03:14.460Z,80.11
2017-09-11T00:03:55.039Z,79.83
2017-09-11T00:04:35.619Z,79.93
2017-09-11T00:05:16.191Z,79.93
2017-09-11T00:05:56.764Z,79.93
2017-09-11T00:06:37.326Z,80.02
2017-09-11T00:07:17.883Z,80.02
2017-09-11T00:07:58.446Z,79.83
2017-09-11T00:08:39.009Z,79.83
2017-09-11T00:09:19.565Z,79.44
2017-09-11T00:10:00.160Z,79.44
2017-09-11T00:10:40.733Z,79.54
2017-09-11T00:11:21.337Z,79.54
2017-09-11T00:12:01.905Z,79.16
2017-09-11T00:12:42.469Z,79.35
2017-09-11T00:13:23.069Z,79.64
2017-09-11T00:14:03.653Z,79.64
2017-09-11T00:14:44.206Z,79.44
2017-09-11T00:15:24.792Z,79.54
2017-09-11T00:16:05.349Z,79.25
2017-09-11T00:16:45.917Z,78.58
2017-09-11T00:17:26.493Z,79.06
2017-09-11T00:18:07.066Z,79.06
2017-09-11T00:18:54.860Z,79.16
2017-09-11T00:19:35.455Z,78.97
2017-09-11T00:20:16.036Z,79.16
2017-09-11T00:20:56.592Z,78.78
2017-09-11T00:21:37.152Z,79.06
2017-09-11T00:22:17.718Z,78.87
2017-09-11T00:22:58.284Z,79.16
2017-09-11T00:23:38.844Z,78.68
2017-09-11T00:24:19.419Z,78.3
2017-09-11T00:24:59.983Z,79.16
2017-09-11T00:25:40.537Z,78.49
2017-09-11T00:26:21.111Z,78.58
2017-09-11T00:27:01.683Z,78.58
2017-09-11T00:27:42.241Z,78.3
2017-09-11T00:28:22.813Z,78.58
2017-09-11T00:29:03.421Z,78.3
2017-09-11T00:29:44.014Z,78.3
2017-09-11T00:30:24.636Z,78.39
2017-09-11T00:31:05.209Z,78.3
2017-09-11T00:31:45.773Z,78.58
2017-09-11T00:32:26.344Z,78.58
2017-09-11T00:33:06.897Z,78.58
2017-09-11T00:33:47.497Z,78.49
2017-09-11T00:34:28.074Z,78.58
2017-09-11T00:35:08.648Z,78.68
2017-09-11T00:35:49.263Z,78.3
2017-09-11T00:36:29.818Z,78.3
2017-09-11T00:37:10.393Z,78.11
2017-09-11T00:37:50.989Z,78.39
2017-09-11T00:38:31.552Z,78.11
2017-09-11T00:39:12.122Z,78.01
2017-09-11T00:39:52.695Z,78.39
2017-09-11T00:40:33.251Z,78.2
2017-09-11T00:41:13.812Z,78.2
2017-09-11T00:41:54.384Z,78.11
2017-09-11T00:42:34.953Z,78.39
2017-09-11T00:43:15.525Z,78.2
2017-09-11T00:43:56.081Z,78.49
2017-09-11T00:44:36.648Z,78.58
2017-09-11T00:45:17.222Z,78.58
2017-09-11T00:45:57.788Z,78.58
2017-09-11T00:46:38.377Z,78.49
2017-09-11T00:47:18.940Z,78.58
2017-09-11T00:47:59.496Z,78.2
2017-09-11T00:48:40.066Z,78.58
2017-09-11T00:49:20.636Z,79.06
2017-09-11T00:50:01.197Z,79.06
2017-09-11T00:50:41.791Z,79.16
2017-09-11T00:51:22.363Z,79.06
2017-09-11T00:52:02.935Z,79.16
2017-09-11T00:52:43.503Z,78.87
2017-09-11T00:53:24.076Z,78.39
2017-09-11T00:54:04.661Z,78.3
2017-09-11T00:54:45.235Z,78.97
2017-09-11T00:55:25.820Z,79.25
2017-09-11T00:56:06.368Z,79.06
2017-09-11T00:56:46.937Z,78.49
2017-09-11T00:57:27.501Z,78.39
2017-09-11T00:58:08.062Z,78.49
2017-09-11T00:58:48.622Z,78.58
2017-09-11T00:59:29.184Z,78.3
2017-09-11T01:00:09.740Z,78.49
2017-09-11T01:00:50.303Z,79.06
2017-09-11T01:01:30.858Z,79.06
2017-09-11T01:02:11.433Z,79.25
2017-09-11T01:02:51.991Z,78.97
2017-09-11T01:03:32.567Z,79.06
2017-09-11T01:04:13.136Z,79.16
2017-09-11T01:04:53.710Z,78.87
2017-09-11T01:05:34.273Z,78.97
2017-09-11T01:06:14.896Z,78.78
2017-09-11T01:06:55.461Z,78.78
2017-09-11T01:07:36.037Z,79.16
2017-09-11T01:08:16.602Z,79.06
2017-09-11T01:08:57.164Z,78.78
2017-09-11T01:09:37.732Z,79.16
2017-09-11T01:10:18.302Z,79.16
2017-09-11T01:10:58.922Z,79.16
2017-09-11T01:11:39.504Z,79.06
2017-09-11T01:12:20.063Z,79.06
2017-09-11T01:13:00.629Z,79.06
2017-09-11T01:13:41.194Z,78.97
2017-09-11T01:14:21.764Z,79.06
2017-09-11T01:15:02.326Z,78.78
2017-09-11T01:15:42.939Z,78.97
2017-09-11T01:16:23.510Z,78.97
2017-09-11T01:17:04.091Z,78.78
2017-09-11T01:17:44.645Z,79.06
2017-09-11T01:18:25.210Z,78.78
2017-09-11T01:19:05.777Z,78.97
2017-09-11T01:19:46.345Z,79.06
2017-09-11T01:20:26.952Z,78.78
2017-09-11T01:21:07.507Z,78.78
2017-09-11T01:21:48.075Z,78.97
2017-09-11T01:22:28.630Z,79.16
2017-09-11T01:23:09.222Z,79.16
2017-09-11T01:23:49.784Z,79.44
2017-09-11T01:24:30.381Z,79.44
2017-09-11T01:25:10.935Z,79.54
2017-09-11T01:25:51.503Z,79.69
2017-09-11T01:26:32.067Z,79.6
2017-09-11T01:27:12.641Z,79.5
2017-09-11T01:27:53.217Z,79.5
2017-09-11T01:28:33.791Z,79.64
2017-09-11T01:29:14.344Z,79.64
2017-09-11T01:29:54.910Z,79.41
2017-09-11T01:30:35.466Z,79.69
2017-09-11T01:31:16.062Z,79.41
2017-09-11T01:31:56.611Z,79.73
2017-09-11T01:32:37.175Z,79.69
2017-09-11T01:33:17.741Z,79.69
2017-09-11T01:33:58.334Z,79.35
2017-09-11T01:34:38.903Z,79.35
2017-09-11T01:35:19.465Z,79.5
2017-09-11T01:36:00.032Z,79.22
2017-09-11T01:36:40.647Z,79.12
2017-09-11T01:37:21.209Z,79.31
2017-09-11T01:38:01.773Z,79.02
2017-09-11T01:38:42.337Z,79.79
2017-09-11T01:39:22.916Z,79.12
2017-09-11T01:40:03.482Z,79.12
2017-09-11T01:40:44.053Z,79.31
2017-09-11T01:41:24.613Z,79.22
2017-09-11T01:42:05.174Z,79.69
2017-09-11T01:42:45.737Z,79.5
2017-09-11T01:43:26.292Z,79.5
2017-09-11T01:44:06.855Z,79.6
2017-09-11T01:44:47.428Z,79.5
2017-09-11T01:45:28.013Z,79.69
2017-09-11T01:46:08.579Z,79.5
2017-09-11T01:46:49.149Z,79.88
2017-09-11T01:47:29.730Z,79.6
2017-09-11T01:48:10.303Z,79.88
2017-09-11T01:48:50.894Z,79.6
2017-09-11T01:49:31.468Z,79.6
2017-09-11T01:50:12.027Z,79.22
2017-09-11T01:50:52.588Z,79.22
2017-09-11T01:51:33.152Z,80.36
2017-09-11T01:52:13.739Z,80.07
2017-09-11T01:52:54.314Z,79.79
2017-09-11T01:53:34.894Z,79.88
2017-09-11T01:54:15.460Z,79.98
2017-09-11T01:54:56.021Z,79.79
2017-09-11T01:55:36.645Z,80.07
2017-09-11T01:56:17.176Z,80.07
2017-09-11T01:56:57.748Z,80.07
2017-09-11T01:57:38.310Z,79.98
2017-09-11T01:58:18.872Z,79.98
2017-09-11T01:58:59.450Z,79.98
2017-09-11T01:59:40.023Z,79.98
2017-09-11T02:00:20.596Z,80.74
2017-09-11T02:01:01.163Z,80.74
2017-09-11T02:01:41.723Z,80.65
2017-09-11T02:02:22.278Z,80.74
2017-09-11T02:03:02.862Z,80.74
2017-09-11T02:03:43.432Z,80.36
2017-09-11T02:04:24.020Z,80.36
2017-09-11T02:05:04.594Z,80.55
2017-09-11T02:05:45.163Z,80.46
2017-09-11T02:06:25.747Z,80.55
2017-09-11T02:07:06.309Z,80.55
2017-09-11T02:07:46.869Z,80.65
2017-09-11T02:08:27.458Z,80.46
2017-09-11T02:09:08.033Z,80.65
2017-09-11T02:09:48.590Z,80.74
2017-09-11T02:10:29.184Z,80.65
2017-09-11T02:11:09.755Z,80.84
2017-09-11T02:11:50.324Z,80.84
2017-09-11T02:12:30.897Z,80.84
2017-09-11T02:13:11.469Z,80.93
2017-09-11T02:13:52.031Z,81.22
2017-09-11T02:14:32.614Z,81.22
2017-09-11T02:15:13.169Z,81.13
2017-09-11T02:15:53.727Z,80.65
2017-09-11T02:16:34.280Z,80.74
2017-09-11T02:17:14.857Z,81.41
2017-09-11T02:17:55.428Z,81.6
2017-09-11T02:18:36.011Z,81.32
2017-09-11T02:19:16.585Z,81.6
2017-09-11T02:19:57.144Z,81.41
2017-09-11T02:20:37.726Z,81.41
2017-09-11T02:21:18.298Z,81.6
2017-09-11T02:21:58.869Z,81.6
2017-09-11T02:22:39.431Z,81.51
2017-09-11T02:23:19.998Z,81.41
2017-09-11T02:24:00.575Z,81.7
2017-09-11T02:24:41.151Z,81.6
2017-09-11T02:25:21.710Z,81.6
2017-09-11T02:26:02.280Z,81.6
2017-09-11T02:26:42.858Z,81.89
2017-09-11T02:27:23.421Z,81.51
2017-09-11T02:28:03.987Z,81.6
2017-09-11T02:28:44.639Z,81.41
2017-09-11T02:29:25.211Z,82.37
2017-09-11T02:30:05.788Z,82.08
2017-09-11T02:30:46.358Z,82.18
2017-09-11T02:31:26.930Z,82.28
2017-09-11T02:32:07.492Z,81.99
2017-09-11T02:32:48.071Z,81.89
2017-09-11T02:33:28.643Z,82.37
2017-09-11T02:34:09.216Z,82.28
2017-09-11T02:34:49.786Z,82.08
2017-09-11T02:35:30.354Z,81.99
2017-09-11T02:36:10.904Z,81.95
2017-09-11T02:36:51.474Z,82.08
2017-09-11T02:37:32.059Z,81.89
2017-09-11T02:38:12.659Z,81.99
2017-09-11T02:38:53.237Z,81.99
2017-09-11T02:39:33.799Z,82.08
2017-09-11T02:40:14.365Z,82.37
2017-09-11T02:40:54.929Z,82.18
2017-09-11T02:41:35.496Z,82.08
2017-09-11T02:42:16.076Z,82.18
2017-09-11T02:42:56.636Z,82.28
2017-09-11T02:43:37.217Z,82.28
2017-09-11T02:44:17.777Z,82.84
2017-09-11T02:44:58.344Z,82.65
2017-09-11T02:45:38.919Z,82.94
2017-09-11T02:46:19.494Z,82.75
2017-09-11T02:47:00.068Z,82.81
2017-09-11T02:47:40.637Z,82.65
2017-09-11T02:48:21.201Z,82.65
2017-09-11T02:49:01.775Z,82.46
2017-09-11T02:49:42.338Z,82.56
2017-09-11T02:50:22.898Z,82.46
2017-09-11T02:51:03.458Z,82.94
2017-09-11T02:51:44.027Z,82.94
2017-09-11T02:52:24.608Z,82.84
2017-09-11T02:53:05.200Z,83.04
2017-09-11T02:53:45.758Z,82.84
2017-09-11T02:54:26.332Z,82.52
2017-09-11T02:55:06.902Z,82.84
2017-09-11T02:55:47.493Z,83.42
2017-09-11T02:56:28.080Z,83.23
2017-09-11T02:57:08.642Z,83.23
2017-09-11T02:57:49.250Z,83.38
2017-09-11T02:58:29.795Z,82.9
2017-09-11T02:59:10.356Z,83.47
2017-09-11T02:59:50.952Z,82.9
2017-09-11T03:00:31.510Z,83
2017-09-11T03:01:12.104Z,83.38
2017-09-11T03:01:52.688Z,82.9
2017-09-11T03:02:33.267Z,83.18
2017-09-11T03:03:13.837Z,82.81
2017-09-11T03:03:54.423Z,83.28
2017-09-11T03:04:34.967Z,82.9
2017-09-11T03:05:15.538Z,83.04
2017-09-11T03:05:56.104Z,82.84
2017-09-11T03:06:36.673Z,82.94
2017-09-11T03:07:17.255Z,83.04
2017-09-11T03:07:57.827Z,82.84
2017-09-11T03:08:38.408Z,82.94
2017-09-11T03:09:18.964Z,82.84
2017-09-11T03:09:59.569Z,82.9
2017-09-11T03:10:40.145Z,83
2017-09-11T03:11:20.698Z,83
2017-09-11T03:12:01.273Z,82.61
2017-09-11T03:12:41.837Z,83.38
2017-09-11T03:13:25.625Z,83.09
2017-09-11T03:14:06.197Z,83
2017-09-11T03:14:46.803Z,83.38
2017-09-11T03:15:27.412Z,83.18
2017-09-11T03:16:08.009Z,83.67
2017-09-11T03:16:48.570Z,83.38
2017-09-11T03:17:29.140Z,83.13
2017-09-11T03:18:09.707Z,83.09
2017-09-11T03:18:50.265Z,83.18
2017-09-11T03:19:30.824Z,83.33
2017-09-11T03:20:11.414Z,82.71
2017-09-11T03:20:52.013Z,83.18
2017-09-11T03:21:32.575Z,83.38
2017-09-11T03:22:13.166Z,82.71
2017-09-11T03:22:53.813Z,83
2017-09-11T03:23:34.415Z,83.09
2017-09-11T03:24:14.976Z,83.51
2017-09-11T03:24:55.572Z,83.86
2017-09-11T03:25:36.167Z,83.67
2017-09-11T03:26:16.762Z,83.57
2017-09-11T03:26:57.356Z,83.67
2017-09-11T03:27:37.923Z,83.38
2017-09-11T03:28:18.504Z,83.57
2017-09-11T03:28:59.079Z,83.28
2017-09-11T03:29:39.716Z,83.47
2017-09-11T03:31:37.443Z,83.38
2017-09-11T03:32:18.011Z,83.67
2017-09-11T03:32:58.567Z,83.57
2017-09-11T03:33:39.158Z,83.47
2017-09-11T03:34:19.704Z,83.95
2017-09-11T03:35:00.303Z,84.14
2017-09-11T03:35:40.880Z,83.95
2017-09-11T03:36:21.440Z,83.33
2017-09-11T03:37:01.997Z,83.18
2017-09-11T03:37:42.596Z,83.86
2017-09-11T03:38:23.138Z,83.99
2017-09-11T03:39:03.750Z,83.47
2017-09-11T03:39:44.318Z,83.95
2017-09-11T03:40:24.898Z,83.95
2017-09-11T03:41:05.477Z,83.99
2017-09-11T03:41:46.048Z,84.05
2017-09-11T03:42:26.602Z,83.47
2017-09-11T03:43:07.153Z,83.57
2017-09-11T03:43:47.719Z,83.86
2017-09-11T03:44:28.277Z,83.76
2017-09-11T03:45:08.836Z,83.95
2017-09-11T03:45:49.384Z,83.57
2017-09-11T03:46:29.933Z,83.95
2017-09-11T03:47:10.535Z,83.76
2017-09-11T03:47:51.097Z,83.67
2017-09-11T03:48:31.670Z,83.95
2017-09-11T03:49:12.246Z,83.57
2017-09-11T03:49:52.789Z,83.67
2017-09-11T03:50:33.399Z,84.05
2017-09-11T03:51:13.934Z,83.95
2017-09-11T03:51:54.498Z,83.67
2017-09-11T03:52:35.057Z,83.95
2017-09-11T03:53:15.620Z,83.86
2017-09-11T03:53:56.192Z,83.86
2017-09-11T03:54:36.758Z,83.76
2017-09-11T03:55:17.312Z,83.76
2017-09-11T03:55:57.878Z,83.86
2017-09-11T03:56:38.439Z,84.05
2017-09-11T03:57:19.000Z,83.95
2017-09-11T03:57:59.564Z,83.95
2017-09-11T03:58:40.130Z,84.23
2017-09-11T03:59:20.698Z,84.05
2017-09-11T04:00:01.270Z,84.05
2017-09-11T04:00:41.832Z,83.76
2017-09-11T04:01:22.395Z,83.76
2017-09-11T04:02:02.971Z,84.05
2017-09-11T04:02:43.552Z,83.76
2017-09-11T04:03:24.107Z,83.95
2017-09-11T04:04:04.661Z,83.95
2017-09-11T04:04:45.243Z,83.95
2017-09-11T04:05:25.827Z,83.95
2017-09-11T04:06:06.395Z,83.57
2017-09-11T04:06:46.968Z,84.05
2017-09-11T04:07:27.522Z,83.86
2017-09-11T04:08:08.079Z,83.86
2017-09-11T04:08:48.641Z,83.86
2017-09-11T04:09:29.219Z,83.95
2017-09-11T04:10:09.784Z,83.95
2017-09-11T04:10:50.352Z,83.95
2017-09-11T04:11:30.914Z,83.95
2017-09-11T04:12:11.507Z,83.86
2017-09-11T04:12:52.092Z,84.05
2017-09-11T04:13:32.665Z,83.95
2017-09-11T04:14:13.226Z,83.67
2017-09-11T04:14:53.824Z,83.76
2017-09-11T04:15:34.389Z,83.95
2017-09-11T04:16:14.943Z,83.95
2017-09-11T04:16:55.549Z,83.86
2017-09-11T04:17:36.110Z,83.95
2017-09-11T04:18:16.690Z,83.86
2017-09-11T04:18:57.308Z,83.76
2017-09-11T04:19:37.876Z,83.67
2017-09-11T04:20:18.440Z,83.86
2017-09-11T04:20:59.013Z,83.67
2017-09-11T04:21:39.588Z,83.86
2017-09-11T04:22:20.145Z,83.86
2017-09-11T04:23:00.712Z,83.76
2017-09-11T04:23:41.284Z,83.67
2017-09-11T04:24:21.854Z,83.76
2017-09-11T04:25:02.418Z,83.76
2017-09-11T04:25:42.980Z,84.23
2017-09-11T04:26:23.536Z,83.95
2017-09-11T04:27:04.094Z,84.05
2017-09-11T04:27:44.650Z,83.95
2017-09-11T04:28:25.205Z,83.76
2017-09-11T04:29:05.757Z,83.95
2017-09-11T04:29:46.328Z,83.95
2017-09-11T04:30:26.895Z,83.38
2017-09-11T04:31:07.476Z,83.76
2017-09-11T04:31:48.042Z,83.76
2017-09-11T04:32:28.644Z,84.05
2017-09-11T04:33:09.201Z,84.05
2017-09-11T04:33:49.780Z,83.95
2017-09-11T04:34:30.572Z,84.23
2017-09-11T04:35:11.166Z,83.95
2017-09-11T04:35:51.709Z,83.95
2017-09-11T04:36:32.299Z,83.76
2017-09-11T04:37:12.864Z,83.95
2017-09-11T04:37:53.433Z,83.86
2017-09-11T04:38:34.021Z,83.86
2017-09-11T04:39:14.578Z,83.86
2017-09-11T04:39:55.155Z,83.67
2017-09-11T04:40:35.716Z,83.95
2017-09-11T04:41:16.284Z,83.76
2017-09-11T04:41:56.842Z,83.76
2017-09-11T04:42:37.418Z,83.47
2017-09-11T04:43:18.006Z,83.76
2017-09-11T04:43:58.555Z,83.67
2017-09-11T04:44:39.119Z,83.76
2017-09-11T04:45:19.721Z,83.57
2017-09-11T04:46:00.278Z,83.8
2017-09-11T04:46:40.861Z,83.76
2017-09-11T04:47:21.456Z,83.57
2017-09-11T04:48:02.014Z,83.67
2017-09-11T04:48:42.564Z,83.76
2017-09-11T04:49:23.152Z,83.76
2017-09-11T04:50:03.712Z,83.86
2017-09-11T04:50:44.273Z,83.7
2017-09-11T04:51:24.830Z,83.67
2017-09-11T04:52:05.413Z,83.67
2017-09-11T04:52:45.981Z,83.61
2017-09-11T04:53:26.580Z,83.67
2017-09-11T04:54:07.141Z,83.57
2017-09-11T04:54:47.716Z,83.57
2017-09-11T04:55:28.618Z,83.38
2017-09-11T04:56:09.197Z,83.57
2017-09-11T04:56:49.870Z,83.09
2017-09-11T04:57:30.457Z,83.04
2017-09-11T04:58:11.147Z,83
2017-09-11T04:58:51.726Z,83.04
2017-09-11T04:59:32.317Z,82.81
2017-09-11T05:00:12.898Z,82.81
2017-09-11T05:00:53.458Z,83
2017-09-11T05:01:34.055Z,83
2017-09-11T05:02:14.619Z,82.9
2017-09-11T05:02:55.200Z,83.09
2017-09-11T05:03:35.765Z,83.18
2017-09-11T05:04:16.359Z,83.67
2017-09-11T05:04:56.911Z,83.57
2017-09-11T05:05:37.491Z,82.9
2017-09-11T05:06:18.064Z,82.9
2017-09-11T05:06:58.632Z,82.71
2017-09-11T05:07:39.192Z,83
2017-09-11T05:08:19.769Z,83.28
2017-09-11T05:09:00.371Z,82.9
2017-09-11T05:09:40.934Z,83.38
2017-09-11T05:10:21.511Z,83.28
2017-09-11T05:11:02.075Z,83.18
2017-09-11T05:11:42.641Z,83.09
2017-09-11T05:12:23.379Z,82.71
2017-09-11T05:13:03.951Z,83.76
2017-09-11T05:13:44.515Z,82.71
2017-09-11T05:14:25.343Z,83.38
2017-09-11T05:15:05.908Z,82.9
2017-09-11T05:15:46.476Z,82.81
2017-09-11T05:16:27.065Z,83
2017-09-11T05:17:07.612Z,83
2017-09-11T05:17:48.182Z,82.9
2017-09-11T05:18:28.742Z,82.9
2017-09-11T05:19:09.300Z,82.9
2017-09-11T05:19:49.901Z,83.18
2017-09-11T05:20:30.461Z,83.38
2017-09-11T05:21:11.043Z,83.28
2017-09-11T05:21:51.589Z,82.71
2017-09-11T05:22:32.169Z,82.81
2017-09-11T05:23:12.747Z,82.9
2017-09-11T05:23:53.358Z,83.28
2017-09-11T05:24:33.918Z,83
2017-09-11T05:25:14.516Z,83.28
2017-09-11T05:25:55.090Z,82.9
2017-09-11T05:26:35.650Z,83.18
2017-09-11T05:27:16.294Z,83.09
2017-09-11T05:27:56.873Z,83.09
2017-09-11T05:28:37.466Z,83
2017-09-11T05:29:18.025Z,83.28
2017-09-11T05:29:58.584Z,83.28
2017-09-11T05:30:39.178Z,83.47
2017-09-11T05:31:19.716Z,83.38
2017-09-11T05:32:00.324Z,83.09
2017-09-11T05:32:40.886Z,83.09
2017-09-11T05:33:21.487Z,83.47
2017-09-11T05:34:02.124Z,83.38
2017-09-11T05:34:42.678Z,83.28
2017-09-11T05:35:23.226Z,83.28
2017-09-11T05:36:03.841Z,83.09
2017-09-11T05:36:44.410Z,83.09
2017-09-11T05:37:25.007Z,83.38
2017-09-11T05:38:05.614Z,83.09
2017-09-11T05:38:46.201Z,83.09
2017-09-11T05:39:26.806Z,82.9
2017-09-11T05:40:07.364Z,83.28
2017-09-11T05:40:47.945Z,83.18
2017-09-11T05:41:28.489Z,83.28
2017-09-11T05:42:09.046Z,83.47
2017-09-11T05:42:49.614Z,83.38
2017-09-11T05:43:30.187Z,83.38
2017-09-11T05:44:10.746Z,83.09
2017-09-11T05:44:51.321Z,83.38
2017-09-11T05:45:31.899Z,82.52
2017-09-11T05:46:12.501Z,83.13
2017-09-11T05:46:53.051Z,83.23
2017-09-11T05:47:33.605Z,82.94
2017-09-11T05:48:14.226Z,82.94
2017-09-11T05:48:54.792Z,82.94
2017-09-11T05:49:35.353Z,82.65
2017-09-11T05:50:15.955Z,82.84
2017-09-11T05:50:56.505Z,82.65
2017-09-11T05:51:37.103Z,82.75
2017-09-11T05:52:17.636Z,82.84
2017-09-11T05:52:58.196Z,82.56
2017-09-11T05:53:38.759Z,82.28
2017-09-11T05:54:19.334Z,81.99
2017-09-11T05:54:59.917Z,81.99
2017-09-11T05:55:40.471Z,81.99
2017-09-11T05:56:21.048Z,82.08
2017-09-11T05:57:01.620Z,82.18
2017-09-11T05:57:42.193Z,81.6
2017-09-11T05:58:22.769Z,81.22
2017-09-11T05:59:03.338Z,81.6
2017-09-11T05:59:43.927Z,81.6
2017-09-11T06:00:24.505Z,81.6
2017-09-11T06:01:05.111Z,81.6
2017-09-11T06:01:45.683Z,81.22
2017-09-11T06:02:26.296Z,81.6
2017-09-11T06:03:06.862Z,80.93
2017-09-11T06:03:47.422Z,81.13
2017-09-11T06:04:28.038Z,80.46
2017-09-11T06:05:08.603Z,80.55
2017-09-11T06:05:49.184Z,80.55
2017-09-11T06:06:29.795Z,80.98
2017-09-11T06:07:10.384Z,80.59
2017-09-11T06:07:50.944Z,80.46
2017-09-11T06:08:31.536Z,80.59
2017-09-11T06:09:12.117Z,80.59
2017-09-11T06:09:52.694Z,80.79
2017-09-11T06:10:33.276Z,80.02
2017-09-11T06:11:13.850Z,80.21
2017-09-11T06:11:54.447Z,80.21
2017-09-11T06:12:35.003Z,80.3
2017-09-11T06:13:15.561Z,79.83
2017-09-11T06:13:56.135Z,79.64
2017-09-11T06:14:36.674Z,79.83
2017-09-11T06:15:17.237Z,79.54
2017-09-11T06:15:57.790Z,79.93
2017-09-11T06:16:38.358Z,79.73
2017-09-11T06:17:18.971Z,79.44
2017-09-11T06:17:59.580Z,80.02
2017-09-11T06:18:40.156Z,79.64
2017-09-11T06:19:20.736Z,79.64
2017-09-11T06:20:01.298Z,80.11
2017-09-11T06:20:41.857Z,79.93
2017-09-11T06:21:22.435Z,79.93
2017-09-11T06:22:03.000Z,79.54
2017-09-11T06:22:43.584Z,79.64
2017-09-11T06:23:24.170Z,79.54
2017-09-11T06:24:04.735Z,79.73
2017-09-11T06:24:45.292Z,79.54
2017-09-11T06:25:25.867Z,79.83
2017-09-11T06:26:06.430Z,79.93
2017-09-11T06:26:47.013Z,79.64
2017-09-11T06:27:27.596Z,79.06
2017-09-11T06:28:08.158Z,78.97
2017-09-11T06:28:48.753Z,79.06
2017-09-11T06:29:29.322Z,79.16
2017-09-11T06:30:09.872Z,78.58
2017-09-11T06:30:50.466Z,78.49
2017-09-11T06:31:31.052Z,78.3
2017-09-11T06:32:11.628Z,78.58
2017-09-11T06:32:52.192Z,78.49
2017-09-11T06:33:32.769Z,78.3
2017-09-11T06:34:13.339Z,78.3
2017-09-11T06:34:53.927Z,78.53
2017-09-11T06:35:34.493Z,78.14
2017-09-11T06:36:15.060Z,77.67
2017-09-11T06:36:55.625Z,77.95
2017-09-11T06:37:36.193Z,77
2017-09-11T06:38:16.778Z,76.56
2017-09-11T06:38:57.357Z,76.27
2017-09-11T06:39:37.910Z,76.27
2017-09-11T06:40:18.478Z,75.41
2017-09-11T06:40:59.086Z,75.51
2017-09-11T06:41:39.643Z,75.31
2017-09-11T06:42:20.222Z,74.97
2017-09-11T06:43:00.816Z,74.26
2017-09-11T06:43:41.462Z,74.4
2017-09-11T06:44:22.032Z,73.59
2017-09-11T06:45:02.604Z,73.91
2017-09-11T06:45:43.180Z,74.01
2017-09-11T06:46:23.734Z,73.54
2017-09-11T06:47:04.304Z,73.44
2017-09-11T06:47:44.912Z,73.24
2017-09-11T06:48:25.523Z,73.54
2017-09-11T06:49:06.104Z,73.24
2017-09-11T06:49:46.729Z,73.15
2017-09-11T06:50:27.297Z,73.44
2017-09-11T06:51:07.890Z,73.34
2017-09-11T06:51:48.460Z,73.72
2017-09-11T06:52:29.040Z,72.67
2017-09-11T06:53:09.615Z,72.67
2017-09-11T06:53:50.220Z,72.96
2017-09-11T06:54:30.796Z,72.77
2017-09-11T06:55:11.368Z,72.48
2017-09-11T06:55:51.960Z,72.03
2017-09-11T06:56:32.536Z,72.71
2017-09-11T06:57:13.119Z,73.24
2017-09-11T06:57:53.684Z,73.47
2017-09-11T06:58:34.273Z,73.19
2017-09-11T06:59:14.849Z,72.8
2017-09-11T06:59:55.434Z,73.19
2017-09-11T07:00:36.023Z,72.9
2017-09-11T07:01:16.598Z,74.15
2017-09-11T07:01:57.184Z,73.95
2017-09-11T07:02:37.746Z,72.99
2017-09-11T07:03:18.325Z,73.19
2017-09-11T07:03:58.887Z,72.9
2017-09-11T07:04:39.547Z,71.75
2017-09-11T07:05:20.195Z,72.27
2017-09-11T07:06:00.792Z,71.78
2017-09-11T07:06:41.352Z,71.4
2017-09-11T07:07:21.967Z,71.11
2017-09-11T07:08:02.560Z,71.31
2017-09-11T07:08:43.164Z,71.44
2017-09-11T07:09:23.724Z,70.48
2017-09-11T07:10:04.347Z,71.44
2017-09-11T07:10:44.897Z,71.15
2017-09-11T07:11:25.483Z,70
2017-09-11T07:12:06.043Z,69.23
2017-09-11T07:12:46.617Z,69.13
2017-09-11T07:13:27.192Z,69.93
2017-09-11T07:14:07.777Z,69.74
2017-09-11T07:14:48.678Z,68.5
2017-09-11T07:15:29.286Z,68.3
2017-09-11T07:16:09.891Z,68.4
2017-09-11T07:16:50.994Z,67.83
2017-09-11T07:17:31.599Z,68.02
2017-09-11T07:18:12.168Z,66.86
2017-09-11T07:18:52.748Z,66.67
2017-09-11T07:19:33.323Z,66.49
2017-09-11T07:20:13.888Z,66.67
2017-09-11T07:20:54.476Z,66.67
2017-09-11T07:21:35.076Z,67.35
2017-09-11T07:22:15.652Z,66.86
2017-09-11T07:22:56.276Z,66.86
2017-09-11T07:23:36.852Z,66.96
2017-09-11T07:24:17.424Z,67.79
2017-09-11T07:24:57.997Z,67.69
2017-09-11T07:25:38.573Z,68.37
2017-09-11T07:26:19.243Z,68.37
2017-09-11T07:26:59.850Z,68.95
2017-09-11T07:27:40.422Z,69.42
2017-09-11T07:28:21.012Z,69.39
2017-09-11T07:29:01.590Z,69.1
2017-09-11T07:29:42.165Z,69.77
2017-09-11T07:30:22.750Z,70.06
2017-09-11T07:31:03.334Z,69.9
2017-09-11T07:31:43.909Z,69.04
2017-09-11T07:32:24.523Z,69.13
2017-09-11T07:33:05.136Z,68.98
2017-09-11T07:33:45.740Z,68.12
2017-09-11T07:34:26.310Z,68.4
2017-09-11T07:35:06.888Z,68.3
2017-09-11T07:35:47.488Z,67.63
2017-09-11T07:36:28.528Z,67.38
2017-09-11T07:37:08.936Z,66.42
2017-09-11T07:37:49.496Z,66.23
2017-09-11T07:38:30.211Z,65.46
2017-09-11T07:39:10.821Z,65.46
2017-09-11T07:39:51.396Z,66.23
2017-09-11T07:40:31.957Z,66.13
2017-09-11T07:41:12.540Z,66.42
2017-09-11T07:41:53.146Z,66.61
2017-09-11T07:42:33.730Z,66.13
2017-09-11T07:43:14.284Z,66.33
2017-09-11T07:43:54.855Z,66.52
2017-09-11T07:44:35.413Z,66.33
2017-09-11T07:45:15.986Z,66.61
2017-09-11T07:45:56.554Z,66.52
2017-09-11T07:46:37.115Z,66.8
2017-09-11T07:47:17.684Z,66.77
2017-09-11T07:47:58.258Z,67.16
2017-09-11T07:48:38.823Z,67.16
2017-09-11T07:49:19.385Z,67.44
2017-09-11T07:49:59.984Z,66.96
2017-09-11T07:50:40.558Z,67.44
2017-09-11T07:51:21.149Z,67.63
2017-09-11T07:52:01.745Z,68.12
2017-09-11T07:52:42.324Z,67.63
2017-09-11T07:53:22.893Z,67.92
2017-09-11T07:54:03.487Z,67.83
2017-09-11T07:54:44.050Z,68.4
2017-09-11T07:55:24.623Z,68.69
2017-09-11T07:56:05.240Z,68.69
2017-09-11T07:56:45.833Z,69.17
2017-09-11T07:57:26.433Z,69.17
2017-09-11T07:58:06.999Z,68.69
2017-09-11T07:58:47.576Z,68.21
2017-09-11T07:59:28.144Z,67.63
2017-09-11T08:00:08.708Z,66.96
2017-09-11T08:00:49.297Z,66.96
2017-09-11T08:01:29.868Z,66.96
2017-09-11T08:02:10.430Z,67.25
2017-09-11T08:02:51.004Z,67.35
2017-09-11T08:03:31.573Z,67.16
2017-09-11T08:04:12.142Z,67.44
2017-09-11T08:04:53.607Z,67.54
2017-09-11T08:05:34.215Z,67.83
2017-09-11T08:06:14.822Z,67.92
2017-09-11T08:06:55.393Z,67.92
2017-09-11T08:07:35.956Z,68.02
2017-09-11T08:08:16.528Z,67.73
2017-09-11T08:08:57.113Z,68.02
2017-09-11T08:09:37.748Z,67.99
2017-09-11T08:10:18.560Z,68.4
2017-09-11T08:10:59.143Z,68.79
2017-09-11T08:11:39.712Z,68.56
2017-09-11T08:12:20.322Z,68.85
2017-09-11T08:13:00.901Z,68.27
2017-09-11T08:13:41.558Z,68.37
2017-09-11T08:14:22.100Z,68.37
2017-09-11T08:15:02.674Z,68.37
2017-09-11T08:15:43.253Z,68.75
2017-09-11T08:16:24.824Z,68.75
2017-09-11T08:17:05.434Z,68.21
2017-09-11T08:17:46.017Z,67.92
2017-09-11T08:18:26.665Z,67.83
2017-09-11T08:19:07.200Z,67.73
2017-09-11T08:19:47.906Z,67.79
2017-09-11T08:20:28.487Z,68.21
2017-09-11T08:21:09.106Z,67.99
2017-09-11T08:21:49.697Z,68.12
2017-09-11T08:22:30.287Z,67.6
2017-09-11T08:23:10.925Z,67.73
2017-09-11T08:23:51.518Z,67.79
2017-09-11T08:24:32.110Z,67.12
2017-09-11T08:25:12.711Z,67.41
2017-09-11T08:25:53.456Z,67.63
2017-09-11T08:26:34.066Z,67.41
2017-09-11T08:27:14.642Z,67.69
2017-09-11T08:27:55.227Z,68.21
2017-09-11T08:28:35.841Z,68.4
2017-09-11T08:29:17.511Z,68.21
2017-09-11T08:29:59.914Z,68.18
2017-09-11T08:30:40.581Z,69.07
2017-09-11T08:31:21.763Z,68.21
2017-09-11T08:32:02.352Z,67.89
2017-09-11T08:32:42.965Z,67.79
2017-09-11T08:33:23.539Z,67.44
2017-09-11T08:34:04.143Z,67.5
2017-09-11T08:34:44.738Z,67.89
2017-09-11T08:35:25.365Z,67.6
2017-09-11T08:36:06.191Z,67.63
2017-09-11T08:36:46.782Z,67.63
2017-09-11T08:37:27.368Z,67.63
2017-09-11T08:38:07.973Z,67.83
2017-09-11T08:38:48.552Z,67.22
2017-09-11T08:39:29.124Z,66.86
2017-09-11T08:40:09.701Z,66.67
2017-09-11T08:40:50.304Z,66.29
2017-09-11T08:41:31.048Z,66.16
2017-09-11T08:42:11.664Z,66.55
2017-09-11T08:42:52.229Z,65.97
2017-09-11T08:43:32.858Z,65.68
2017-09-11T08:44:13.435Z,65.97
2017-09-11T08:44:54.006Z,66.06
2017-09-11T08:45:34.592Z,66.06
2017-09-11T08:46:15.170Z,66.45
2017-09-11T08:46:55.785Z,66.16